sensor_id;sensor_type;location;lat;lon;timestamp;pressure;altitude;pressure_sealevel;temperature;humidity
54306;BME280;66145;45.188;5.712;2023-08-12T00:01:47;99580.84;;;23.85;57.36
54306;BME280;66145;45.188;5.712;2023-08-12T00:04:12;99561.91;;;23.75;57.30
54306;BME280;66145;45.188;5.712;2023-08-12T00:06:40;99581.03;;;23.80;57.51
54306;BME280;66145;45.188;5.712;2023-08-12T00:09:05;99551.66;;;23.63;57.33
54306;BME280;66145;45.188;5.712;2023-08-12T00:11:32;99569.06;;;23.76;57.47
54306;BME280;66145;45.188;5.712;2023-08-12T00:13:57;99568.94;;;23.73;57.47
54306;BME280;66145;45.188;5.712;2023-08-12T00:16:22;99542.66;;;23.54;57.33
54306;BME280;66145;45.188;5.712;2023-08-12T00:18:48;99565.84;;;23.74;57.19
54306;BME280;66145;45.188;5.712;2023-08-12T00:21:13;99572.16;;;23.75;57.18
54306;BME280;66145;45.188;5.712;2023-08-12T00:23:40;99576.19;;;23.77;57.48
54306;BME280;66145;45.188;5.712;2023-08-12T00:26:06;99563.28;;;23.69;57.43
54306;BME280;66145;45.188;5.712;2023-08-12T00:28:33;99577.22;;;23.73;57.65
54306;BME280;66145;45.188;5.712;2023-08-12T00:30:59;99572.16;;;23.75;57.26
54306;BME280;66145;45.188;5.712;2023-08-12T00:33:24;99569.16;;;23.67;57.43
54306;BME280;66145;45.188;5.712;2023-08-12T00:35:49;99575.97;;;23.70;57.54
54306;BME280;66145;45.188;5.712;2023-08-12T00:38:15;99566.84;;;23.69;57.53
54306;BME280;66145;45.188;5.712;2023-08-12T00:40:40;99559.13;;;23.63;57.58
54306;BME280;66145;45.188;5.712;2023-08-12T00:43:05;99572.59;;;23.64;57.66
54306;BME280;66145;45.188;5.712;2023-08-12T00:45:31;99567.75;;;23.61;57.49
54306;BME280;66145;45.188;5.712;2023-08-12T00:47:57;99558.19;;;23.59;57.48
54306;BME280;66145;45.188;5.712;2023-08-12T00:50:23;99578.72;;;23.70;57.46
54306;BME280;66145;45.188;5.712;2023-08-12T00:52:49;99568.22;;;23.63;57.52
54306;BME280;66145;45.188;5.712;2023-08-12T00:55:15;99577.31;;;23.64;57.45
54306;BME280;66145;45.188;5.712;2023-08-12T00:57:41;99586.19;;;23.69;57.56
54306;BME280;66145;45.188;5.712;2023-08-12T01:00:08;99586.19;;;23.69;57.50
54306;BME280;66145;45.188;5.712;2023-08-12T01:02:33;99574.53;;;23.64;57.72
54306;BME280;66145;45.188;5.712;2023-08-12T01:04:58;99576.50;;;23.63;57.51
54306;BME280;66145;45.188;5.712;2023-08-12T01:07:24;99556.31;;;23.50;57.66
54306;BME280;66145;45.188;5.712;2023-08-12T01:09:49;99548.72;;;23.47;57.82
54306;BME280;66145;45.188;5.712;2023-08-12T01:12:25;99579.88;;;23.69;57.49
54306;BME280;66145;45.188;5.712;2023-08-12T01:17:28;99568.56;;;23.62;57.60
54306;BME280;66145;45.188;5.712;2023-08-12T01:19:56;99566.16;;;23.60;57.95
54306;BME280;66145;45.188;5.712;2023-08-12T01:22:23;99563.38;;;23.60;57.63
54306;BME280;66145;45.188;5.712;2023-08-12T01:24:48;99560.94;;;23.59;57.81
54306;BME280;66145;45.188;5.712;2023-08-12T01:27:14;99558.53;;;23.57;57.80
54306;BME280;66145;45.188;5.712;2023-08-12T01:29:44;99572.13;;;23.62;57.44
54306;BME280;66145;45.188;5.712;2023-08-12T01:32:41;99556.78;;;23.52;57.42
54306;BME280;66145;45.188;5.712;2023-08-12T01:35:20;99572.94;;;23.63;57.25
54306;BME280;66145;45.188;5.712;2023-08-12T01:37:48;99575.50;;;23.68;57.63
54306;BME280;66145;45.188;5.712;2023-08-12T01:40:16;99565.78;;;23.62;57.73
54306;BME280;66145;45.188;5.712;2023-08-12T01:42:44;99574.81;;;23.71;57.77
54306;BME280;66145;45.188;5.712;2023-08-12T01:45:10;99566.72;;;23.66;57.72
54306;BME280;66145;45.188;5.712;2023-08-12T01:47:36;99579.88;;;23.69;57.39
54306;BME280;66145;45.188;5.712;2023-08-12T01:50:01;99580.34;;;23.71;57.66
54306;BME280;66145;45.188;5.712;2023-08-12T01:52:26;99575.69;;;23.63;57.55
54306;BME280;66145;45.188;5.712;2023-08-12T01:54:52;99577.78;;;23.66;57.98
54306;BME280;66145;45.188;5.712;2023-08-12T01:57:17;99569.38;;;23.62;57.74
54306;BME280;66145;45.188;5.712;2023-08-12T01:59:42;99567.41;;;23.63;57.26
54306;BME280;66145;45.188;5.712;2023-08-12T02:02:11;99568.22;;;23.63;58.19
54306;BME280;66145;45.188;5.712;2023-08-12T02:04:36;99572.94;;;23.63;57.99
54306;BME280;66145;45.188;5.712;2023-08-12T02:07:03;99571.06;;;23.54;57.31
54306;BME280;66145;45.188;5.712;2023-08-12T02:09:28;99573.06;;;23.66;57.85
54306;BME280;66145;45.188;5.712;2023-08-12T02:11:54;99561.97;;;23.54;57.52
54306;BME280;66145;45.188;5.712;2023-08-12T02:14:19;99573.06;;;23.66;57.82
54306;BME280;66145;45.188;5.712;2023-08-12T02:16:44;99551.59;;;23.51;57.68
54306;BME280;66145;45.188;5.712;2023-08-12T02:19:10;99577.78;;;23.66;57.85
54306;BME280;66145;45.188;5.712;2023-08-12T02:21:35;99557.47;;;23.49;58.10
54306;BME280;66145;45.188;5.712;2023-08-12T02:24:00;99564.66;;;23.63;57.43
54306;BME280;66145;45.188;5.712;2023-08-12T02:26:26;99568.56;;;23.62;57.82
54306;BME280;66145;45.188;5.712;2023-08-12T02:28:51;99562.13;;;23.58;57.80
54306;BME280;66145;45.188;5.712;2023-08-12T02:31:16;99555.66;;;23.53;57.96
54306;BME280;66145;45.188;5.712;2023-08-12T02:33:43;99558.06;;;23.55;57.92
54306;BME280;66145;45.188;5.712;2023-08-12T02:36:08;99569.38;;;23.62;57.87
54306;BME280;66145;45.188;5.712;2023-08-12T02:38:34;99584.09;;;23.66;58.00
54306;BME280;66145;45.188;5.712;2023-08-12T02:40:59;99573.28;;;23.61;57.91
54306;BME280;66145;45.188;5.712;2023-08-12T02:43:24;99565.66;;;23.58;58.02
54306;BME280;66145;45.188;5.712;2023-08-12T02:45:51;99552.53;;;23.55;57.75
54306;BME280;66145;45.188;5.712;2023-08-12T02:48:16;99565.66;;;23.58;57.42
54306;BME280;66145;45.188;5.712;2023-08-12T02:50:41;99573.88;;;23.67;57.90
54306;BME280;66145;45.188;5.712;2023-08-12T02:53:07;99562.25;;;23.61;57.74
54306;BME280;66145;45.188;5.712;2023-08-12T02:55:33;99557.28;;;23.54;58.25
54306;BME280;66145;45.188;5.712;2023-08-12T02:57:59;99563.97;;;23.66;58.08
54306;BME280;66145;45.188;5.712;2023-08-12T03:00:24;99565.78;;;23.62;57.88
54306;BME280;66145;45.188;5.712;2023-08-12T03:02:50;99553.38;;;23.56;57.92
54306;BME280;66145;45.188;5.712;2023-08-12T03:05:15;99571.00;;;23.63;58.08
54306;BME280;66145;45.188;5.712;2023-08-12T03:07:41;99566.63;;;23.62;57.95
54306;BME280;66145;45.188;5.712;2023-08-12T03:10:06;99559.47;;;23.61;57.87
54306;BME280;66145;45.188;5.712;2023-08-12T03:12:32;99566.72;;;23.66;57.98
54306;BME280;66145;45.188;5.712;2023-08-12T03:14:57;99553.84;;;23.58;58.08
54306;BME280;66145;45.188;5.712;2023-08-12T03:17:23;99569.16;;;23.67;58.00
54306;BME280;66145;45.188;5.712;2023-08-12T03:19:48;99555.78;;;23.57;57.76
54306;BME280;66145;45.188;5.712;2023-08-12T03:22:14;99556.72;;;23.61;57.70
54306;BME280;66145;45.188;5.712;2023-08-12T03:24:39;99569.16;;;23.67;57.96
54306;BME280;66145;45.188;5.712;2023-08-12T03:27:05;99568.69;;;23.65;57.79
54306;BME280;66145;45.188;5.712;2023-08-12T03:29:30;99557.03;;;23.60;57.81
54306;BME280;66145;45.188;5.712;2023-08-12T03:31:56;99568.00;;;23.68;57.95
54306;BME280;66145;45.188;5.712;2023-08-12T03:34:21;99553.84;;;23.58;57.87
54306;BME280;66145;45.188;5.712;2023-08-12T03:36:46;99549.91;;;23.59;57.96
54306;BME280;66145;45.188;5.712;2023-08-12T03:39:14;99563.50;;;23.64;57.91
54306;BME280;66145;45.188;5.712;2023-08-12T03:41:39;99563.97;;;23.66;58.27
54306;BME280;66145;45.188;5.712;2023-08-12T03:44:05;99552.22;;;23.57;58.28
54306;BME280;66145;45.188;5.712;2023-08-12T03:46:30;99551.41;;;23.56;58.18
54306;BME280;66145;45.188;5.712;2023-08-12T03:48:56;99559.00;;;23.59;58.08
54306;BME280;66145;45.188;5.712;2023-08-12T03:51:21;99556.72;;;23.61;57.89
54306;BME280;66145;45.188;5.712;2023-08-12T03:53:47;99560.41;;;23.65;58.08
54306;BME280;66145;45.188;5.712;2023-08-12T03:56:12;99566.72;;;23.66;57.62
54306;BME280;66145;45.188;5.712;2023-08-12T03:58:40;99557.84;;;23.60;57.53
54306;BME280;66145;45.188;5.712;2023-08-12T04:01:05;99541.03;;;23.53;58.08
54306;BME280;66145;45.188;5.712;2023-08-12T04:03:33;99541.25;;;23.48;57.88
54306;BME280;66145;45.188;5.712;2023-08-12T04:05:59;99565.00;;;23.61;58.31
54306;BME280;66145;45.188;5.712;2023-08-12T04:08:24;99550.25;;;23.57;58.06
54306;BME280;66145;45.188;5.712;2023-08-12T04:10:51;99554.75;;;23.62;58.23
54306;BME280;66145;45.188;5.712;2023-08-12T04:13:16;99543.13;;;23.56;58.18
54306;BME280;66145;45.188;5.712;2023-08-12T04:15:42;99567.53;;;23.66;58.24
54306;BME280;66145;45.188;5.712;2023-08-12T04:18:08;99545.09;;;23.56;58.29
54306;BME280;66145;45.188;5.712;2023-08-12T04:20:34;99552.34;;;23.60;58.10
54306;BME280;66145;45.188;5.712;2023-08-12T04:22:59;99563.19;;;23.65;57.72
54306;BME280;66145;45.188;5.712;2023-08-12T04:25:25;99551.06;;;23.58;58.34
54306;BME280;66145;45.188;5.712;2023-08-12T04:27:50;99557.19;;;23.63;58.12
54306;BME280;66145;45.188;5.712;2023-08-12T04:30:16;99543.59;;;23.58;58.37
54306;BME280;66145;45.188;5.712;2023-08-12T04:32:42;99551.78;;;23.67;58.04
54306;BME280;66145;45.188;5.712;2023-08-12T04:35:07;99549.69;;;23.64;58.19
54306;BME280;66145;45.188;5.712;2023-08-12T04:37:33;99552.47;;;23.64;57.10
54306;BME280;66145;45.188;5.712;2023-08-12T04:39:58;99545.19;;;23.59;57.89
54306;BME280;66145;45.188;5.712;2023-08-12T04:42:24;99545.09;;;23.56;58.28
54306;BME280;66145;45.188;5.712;2023-08-12T04:44:49;99550.84;;;23.63;58.20
54306;BME280;66145;45.188;5.712;2023-08-12T04:47:15;99546.94;;;23.64;58.14
54306;BME280;66145;45.188;5.712;2023-08-12T04:49:40;99556.16;;;23.68;58.22
54306;BME280;66145;45.188;5.712;2023-08-12T04:52:06;99550.97;;;23.66;57.80
54306;BME280;66145;45.188;5.712;2023-08-12T04:54:32;99544.16;;;23.64;58.08
54306;BME280;66145;45.188;5.712;2023-08-12T04:56:57;99550.63;;;23.68;58.12
54306;BME280;66145;45.188;5.712;2023-08-12T04:59:24;99562.16;;;23.70;58.12
54306;BME280;66145;45.188;5.712;2023-08-12T05:01:49;99528.25;;;23.48;58.24
54306;BME280;66145;45.188;5.712;2023-08-12T05:04:14;99560.06;;;23.67;58.41
54306;BME280;66145;45.188;5.712;2023-08-12T05:06:40;99558.44;;;23.66;58.12
54306;BME280;66145;45.188;5.712;2023-08-12T05:09:05;99553.72;;;23.66;57.55
54306;BME280;66145;45.188;5.712;2023-08-12T05:11:31;99558.91;;;23.68;58.24
54306;BME280;66145;45.188;5.712;2023-08-12T05:13:56;99553.41;;;23.68;58.10
54306;BME280;66145;45.188;5.712;2023-08-12T05:16:21;99543.78;;;23.53;58.28
54306;BME280;66145;45.188;5.712;2023-08-12T05:18:47;99533.53;;;23.41;58.57
54306;BME280;66145;45.188;5.712;2023-08-12T05:21:12;99540.50;;;23.38;58.82
54306;BME280;66145;45.188;5.712;2023-08-12T05:23:37;99552.84;;;23.41;58.89
54306;BME280;66145;45.188;5.712;2023-08-12T05:26:03;99561.44;;;23.39;58.97
54306;BME280;66145;45.188;5.712;2023-08-12T05:28:28;99545.91;;;23.35;58.97
54306;BME280;66145;45.188;5.712;2023-08-12T05:30:53;99538.66;;;23.30;58.88
54306;BME280;66145;45.188;5.712;2023-08-12T05:33:20;99552.09;;;23.32;58.93
54306;BME280;66145;45.188;5.712;2023-08-12T05:35:49;99559.25;;;23.33;58.81
54306;BME280;66145;45.188;5.712;2023-08-12T05:38:15;99548.75;;;23.26;58.82
54306;BME280;66145;45.188;5.712;2023-08-12T05:40:41;99565.94;;;23.44;59.12
54306;BME280;66145;45.188;5.712;2023-08-12T05:43:06;99527.94;;;23.29;58.61
54306;BME280;66145;45.188;5.712;2023-08-12T05:45:31;99561.06;;;23.50;58.73
54306;BME280;66145;45.188;5.712;2023-08-12T05:47:57;99546.50;;;23.41;58.79
54306;BME280;66145;45.188;5.712;2023-08-12T05:50:22;99565.03;;;23.40;59.39
54306;BME280;66145;45.188;5.712;2023-08-12T05:52:48;99561.06;;;23.29;59.33
54306;BME280;66145;45.188;5.712;2023-08-12T05:55:13;99570.75;;;23.35;59.32
54306;BME280;66145;45.188;5.712;2023-08-12T05:57:39;99568.00;;;23.35;59.19
54306;BME280;66145;45.188;5.712;2023-08-12T06:00:05;99542.91;;;23.19;59.10
54306;BME280;66145;45.188;5.712;2023-08-12T06:02:31;99576.75;;;23.37;58.90
54306;BME280;66145;45.188;5.712;2023-08-12T06:04:56;99556.56;;;23.24;58.89
54306;BME280;66145;45.188;5.712;2023-08-12T06:07:21;99573.50;;;23.35;59.03
54306;BME280;66145;45.188;5.712;2023-08-12T06:09:48;99577.88;;;23.36;58.70
54306;BME280;66145;45.188;5.712;2023-08-12T06:12:14;99579.22;;;23.30;58.92
54306;BME280;66145;45.188;5.712;2023-08-12T06:14:40;99560.31;;;23.19;58.65
54306;BME280;66145;45.188;5.712;2023-08-12T06:17:05;99575.00;;;23.32;58.63
54306;BME280;66145;45.188;5.712;2023-08-12T06:19:31;99574.06;;;23.28;58.72
54306;BME280;66145;45.188;5.712;2023-08-12T06:21:56;99576.47;;;23.30;58.61
54306;BME280;66145;45.188;5.712;2023-08-12T06:24:22;99581.50;;;23.28;58.82
54306;BME280;66145;45.188;5.712;2023-08-12T06:26:47;99571.84;;;23.21;58.52
54306;BME280;66145;45.188;5.712;2023-08-12T06:29:12;99580.13;;;23.21;58.67
54306;BME280;66145;45.188;5.712;2023-08-12T06:31:38;99581.06;;;23.26;58.37
54306;BME280;66145;45.188;5.712;2023-08-12T06:34:03;99584.28;;;23.28;58.47
54306;BME280;66145;45.188;5.712;2023-08-12T06:36:29;99582.22;;;23.24;58.43
54306;BME280;66145;45.188;5.712;2023-08-12T06:38:54;99579.63;;;23.19;58.51
54306;BME280;66145;45.188;5.712;2023-08-12T06:41:19;99587.72;;;23.24;58.59
54306;BME280;66145;45.188;5.712;2023-08-12T06:43:45;99589.19;;;23.22;58.20
54306;BME280;66145;45.188;5.712;2023-08-12T06:46:10;99573.63;;;23.17;58.45
54306;BME280;66145;45.188;5.712;2023-08-12T06:48:36;99590.50;;;23.24;58.26
54306;BME280;66145;45.188;5.712;2023-08-12T06:51:01;99597.63;;;23.26;58.43
54306;BME280;66145;45.188;5.712;2023-08-12T06:53:32;99589.34;;;23.26;58.34
54306;BME280;66145;45.188;5.712;2023-08-12T06:55:57;99556.66;;;23.06;58.31
54306;BME280;66145;45.188;5.712;2023-08-12T06:58:23;99595.78;;;23.30;58.22
54306;BME280;66145;45.188;5.712;2023-08-12T07:00:48;99594.03;;;23.25;58.14
54306;BME280;66145;45.188;5.712;2023-08-12T07:03:13;99590.81;;;23.23;58.27
54306;BME280;66145;45.188;5.712;2023-08-12T07:05:38;99587.56;;;23.21;58.11
54306;BME280;66145;45.188;5.712;2023-08-12T07:08:04;99587.72;;;23.24;58.14
54306;BME280;66145;45.188;5.712;2023-08-12T07:10:30;99572.00;;;23.16;57.95
54306;BME280;66145;45.188;5.712;2023-08-12T07:12:55;99567.63;;;23.15;57.86
54306;BME280;66145;45.188;5.712;2023-08-12T07:15:20;99583.16;;;23.20;57.99
54306;BME280;66145;45.188;5.712;2023-08-12T07:17:46;99571.06;;;23.12;57.97
54306;BME280;66145;45.188;5.712;2023-08-12T07:20:11;99553.28;;;23.01;58.11
54306;BME280;66145;45.188;5.712;2023-08-12T07:22:36;99587.56;;;23.21;58.22
54306;BME280;66145;45.188;5.712;2023-08-12T07:25:02;99576.38;;;23.17;58.06
54306;BME280;66145;45.188;5.712;2023-08-12T07:27:27;99573.38;;;23.10;58.23
54306;BME280;66145;45.188;5.712;2023-08-12T07:29:53;99589.38;;;23.17;58.02
54306;BME280;66145;45.188;5.712;2023-08-12T07:32:18;99586.63;;;23.17;58.01
54306;BME280;66145;45.188;5.712;2023-08-12T07:34:44;99591.31;;;23.16;58.37
54306;BME280;66145;45.188;5.712;2023-08-12T07:37:10;99569.31;;;23.07;58.04
54306;BME280;66145;45.188;5.712;2023-08-12T07:39:35;99585.31;;;23.14;57.76
54306;BME280;66145;45.188;5.712;2023-08-12T07:42:01;99586.28;;;23.18;58.20
54306;BME280;66145;45.188;5.712;2023-08-12T07:44:26;99571.41;;;23.11;58.15
54306;BME280;66145;45.188;5.712;2023-08-12T07:46:51;99578.66;;;23.15;58.10
54306;BME280;66145;45.188;5.712;2023-08-12T07:49:17;99570.59;;;23.10;58.13
54306;BME280;66145;45.188;5.712;2023-08-12T07:51:42;99561.03;;;23.07;57.89
54306;BME280;66145;45.188;5.712;2023-08-12T07:54:07;99558.16;;;23.04;58.12
54306;BME280;66145;45.188;5.712;2023-08-12T07:56:33;99578.19;;;23.13;58.13
54306;BME280;66145;45.188;5.712;2023-08-12T07:58:58;99572.53;;;23.09;58.19
54306;BME280;66145;45.188;5.712;2023-08-12T08:01:24;99571.28;;;23.07;58.13
54306;BME280;66145;45.188;5.712;2023-08-12T08:03:49;99578.66;;;23.15;58.01
54306;BME280;66145;45.188;5.712;2023-08-12T08:06:14;99576.13;;;23.10;58.09
54306;BME280;66145;45.188;5.712;2023-08-12T08:08:40;99576.13;;;23.10;58.08
54306;BME280;66145;45.188;5.712;2023-08-12T08:11:05;99582.56;;;23.14;58.24
54306;BME280;66145;45.188;5.712;2023-08-12T08:13:31;99582.91;;;23.13;57.95
54306;BME280;66145;45.188;5.712;2023-08-12T08:15:56;99567.09;;;23.01;58.01
54306;BME280;66145;45.188;5.712;2023-08-12T08:18:22;99587.47;;;23.08;58.06
54306;BME280;66145;45.188;5.712;2023-08-12T08:20:47;99570.50;;;22.98;57.93
54306;BME280;66145;45.188;5.712;2023-08-12T08:23:13;99593.59;;;23.14;58.13
54306;BME280;66145;45.188;5.712;2023-08-12T08:25:38;99572.59;;;23.01;58.07
54306;BME280;66145;45.188;5.712;2023-08-12T08:28:04;99593.47;;;23.11;57.81
54306;BME280;66145;45.188;5.712;2023-08-12T08:30:29;99590.72;;;23.11;57.93
54306;BME280;66145;45.188;5.712;2023-08-12T08:32:54;99569.97;;;23.04;57.92
54306;BME280;66145;45.188;5.712;2023-08-12T08:35:20;99567.09;;;23.01;58.09
54306;BME280;66145;45.188;5.712;2023-08-12T08:37:45;99580.81;;;23.09;57.87
54306;BME280;66145;45.188;5.712;2023-08-12T08:40:10;99564.69;;;22.99;57.87
54306;BME280;66145;45.188;5.712;2023-08-12T08:42:37;99578.88;;;23.10;57.84
54306;BME280;66145;45.188;5.712;2023-08-12T08:45:09;99579.22;;;23.08;57.59
54306;BME280;66145;45.188;5.712;2023-08-12T08:47:37;99584.84;;;23.12;57.91
54306;BME280;66145;45.188;5.712;2023-08-12T08:50:03;99579.34;;;23.12;57.68
54306;BME280;66145;45.188;5.712;2023-08-12T08:52:29;99577.59;;;23.07;57.95
54306;BME280;66145;45.188;5.712;2023-08-12T08:54:57;99577.28;;;23.09;57.86
54306;BME280;66145;45.188;5.712;2023-08-12T08:57:23;99574.63;;;23.13;57.91
54306;BME280;66145;45.188;5.712;2023-08-12T08:59:48;99558.47;;;23.02;57.89
54306;BME280;66145;45.188;5.712;2023-08-12T09:02:16;99565.09;;;23.10;57.90
54306;BME280;66145;45.188;5.712;2023-08-12T09:04:45;99559.63;;;23.01;57.74
54306;BME280;66145;45.188;5.712;2023-08-12T09:07:11;99573.38;;;23.10;57.79
54306;BME280;66145;45.188;5.712;2023-08-12T09:09:38;99555.38;;;23.04;57.96
54306;BME280;66145;45.188;5.712;2023-08-12T09:12:05;99553.66;;;22.99;57.68
54306;BME280;66145;45.188;5.712;2023-08-12T09:14:31;99558.28;;;23.07;57.76
54306;BME280;66145;45.188;5.712;2023-08-12T09:16:57;99576.91;;;23.11;57.81
54306;BME280;66145;45.188;5.712;2023-08-12T09:19:22;99559.41;;;23.06;57.70
54306;BME280;66145;45.188;5.712;2023-08-12T09:21:54;99568.28;;;23.12;57.98
54306;BME280;66145;45.188;5.712;2023-08-12T09:24:26;99558.47;;;23.02;57.77
54306;BME280;66145;45.188;5.712;2023-08-12T09:26:52;99561.50;;;23.09;57.66
54306;BME280;66145;45.188;5.712;2023-08-12T09:29:18;99539.16;;;23.02;57.66
54306;BME280;66145;45.188;5.712;2023-08-12T09:31:47;99556.81;;;23.10;57.57
54306;BME280;66145;45.188;5.712;2023-08-12T09:34:12;99561.16;;;23.11;57.71
54306;BME280;66145;45.188;5.712;2023-08-12T09:36:38;99539.50;;;23.01;57.64
54306;BME280;66145;45.188;5.712;2023-08-12T09:39:07;99542.06;;;23.06;57.78
54306;BME280;66145;45.188;5.712;2023-08-12T09:41:34;99544.59;;;23.11;57.77
54306;BME280;66145;45.188;5.712;2023-08-12T09:44:02;99548.53;;;23.10;57.80
54306;BME280;66145;45.188;5.712;2023-08-12T09:46:28;99535.59;;;23.02;57.76
54306;BME280;66145;45.188;5.712;2023-08-12T09:48:53;99536.69;;;23.09;57.64
54306;BME280;66145;45.188;5.712;2023-08-12T09:51:20;99538.28;;;23.11;57.73
54306;BME280;66145;45.188;5.712;2023-08-12T09:53:48;99521.03;;;23.01;57.53
54306;BME280;66145;45.188;5.712;2023-08-12T09:56:18;99530.38;;;23.09;57.60
54306;BME280;66145;45.188;5.712;2023-08-12T09:58:47;99522.97;;;23.01;57.65
54306;BME280;66145;45.188;5.712;2023-08-12T10:01:13;99506.59;;;22.96;57.69
54306;BME280;66145;45.188;5.712;2023-08-12T10:03:41;99515.94;;;23.03;57.36
54306;BME280;66145;45.188;5.712;2023-08-12T10:06:08;99518.19;;;23.10;57.60
54306;BME280;66145;45.188;5.712;2023-08-12T10:08:35;99519.78;;;23.11;57.51
54306;BME280;66145;45.188;5.712;2023-08-12T10:11:01;99493.09;;;23.03;57.62
54306;BME280;66145;45.188;5.712;2023-08-12T10:13:26;99498.13;;;23.01;57.36
54306;BME280;66145;45.188;5.712;2023-08-12T10:15:52;99510.34;;;23.12;57.55
54306;BME280;66145;45.188;5.712;2023-08-12T10:18:19;99514.25;;;23.11;57.63
54306;BME280;66145;45.188;5.712;2023-08-12T10:20:46;99462.53;;;22.87;57.48
54306;BME280;66145;45.188;5.712;2023-08-12T10:23:16;99496.56;;;23.12;57.38
54306;BME280;66145;45.188;5.712;2023-08-12T10:25:44;99496.56;;;23.12;57.53
54306;BME280;66145;45.188;5.712;2023-08-12T10:28:11;99482.31;;;23.10;57.59
54306;BME280;66145;45.188;5.712;2023-08-12T10:30:39;99482.44;;;23.14;57.41
54306;BME280;66145;45.188;5.712;2023-08-12T10:33:05;99485.22;;;23.14;57.46
54306;BME280;66145;45.188;5.712;2023-08-12T10:35:47;99471.41;;;23.14;57.63
54306;BME280;66145;45.188;5.712;2023-08-12T10:38:17;99450.22;;;23.05;57.11
54306;BME280;66145;45.188;5.712;2023-08-12T10:40:43;99458.28;;;23.11;57.43
54306;BME280;66145;45.188;5.712;2023-08-12T10:43:08;99440.19;;;23.01;57.37
54306;BME280;66145;45.188;5.712;2023-08-12T10:45:42;99458.41;;;23.14;57.40
54306;BME280;66145;45.188;5.712;2023-08-12T10:50:34;99435.06;;;23.12;57.25
54306;BME280;66145;45.188;5.712;2023-08-12T10:53:22;99449.28;;;23.22;57.25
54306;BME280;66145;45.188;5.712;2023-08-12T10:55:59;99444.91;;;23.21;57.28
54306;BME280;66145;45.188;5.712;2023-08-12T10:59:02;99427.75;;;23.16;57.25
54306;BME280;66145;45.188;5.712;2023-08-12T11:01:20;99431.75;;;23.18;57.13
54306;BME280;66145;45.188;5.712;2023-08-12T11:03:47;99430.09;;;23.26;57.21
54306;BME280;66145;45.188;5.712;2023-08-12T11:06:13;99427.81;;;23.28;56.96
54306;BME280;66145;45.188;5.712;2023-08-12T11:08:52;99420.88;;;23.22;57.03
54306;BME280;66145;45.188;5.712;2023-08-12T11:11:22;99422.59;;;23.27;56.92
54306;BME280;66145;45.188;5.712;2023-08-12T11:13:56;99423.31;;;23.23;57.12
54306;BME280;66145;45.188;5.712;2023-08-12T11:16:34;99418.38;;;23.29;57.04
54306;BME280;66145;45.188;5.712;2023-08-12T11:19:00;99404.00;;;23.23;57.09
54306;BME280;66145;45.188;5.712;2023-08-12T11:21:26;99404.66;;;23.20;57.37
54306;BME280;66145;45.188;5.712;2023-08-12T11:23:54;99410.22;;;23.33;57.48
54306;BME280;66145;45.188;5.712;2023-08-12T11:26:23;99408.13;;;23.30;57.02
54306;BME280;66145;45.188;5.712;2023-08-12T11:28:48;99384.44;;;23.29;57.20
54306;BME280;66145;45.188;5.712;2023-08-12T11:31:14;99387.09;;;23.25;57.14
54306;BME280;66145;45.188;5.712;2023-08-12T11:33:40;99379.94;;;23.24;57.07
54306;BME280;66145;45.188;5.712;2023-08-12T11:36:06;99378.81;;;23.25;56.99
54306;BME280;66145;45.188;5.712;2023-08-12T11:38:31;99374.44;;;23.24;57.13
54306;BME280;66145;45.188;5.712;2023-08-12T11:41:00;99386.41;;;23.28;57.14
54306;BME280;66145;45.188;5.712;2023-08-12T11:43:26;99364.53;;;23.23;57.22
54306;BME280;66145;45.188;5.712;2023-08-12T11:45:51;99360.81;;;23.19;57.07
54306;BME280;66145;45.188;5.712;2023-08-12T11:48:16;99384.13;;;23.30;57.14
54306;BME280;66145;45.188;5.712;2023-08-12T11:50:42;99380.69;;;23.33;56.93
54306;BME280;66145;45.188;5.712;2023-08-12T11:53:07;99376.31;;;23.32;57.01
54306;BME280;66145;45.188;5.712;2023-08-12T11:55:33;99370.53;;;23.25;57.06
54306;BME280;66145;45.188;5.712;2023-08-12T11:57:59;99367.78;;;23.25;56.90
54306;BME280;66145;45.188;5.712;2023-08-12T12:00:25;99360.16;;;23.22;57.28
54306;BME280;66145;45.188;5.712;2023-08-12T12:02:53;99375.16;;;23.33;57.05
54306;BME280;66145;45.188;5.712;2023-08-12T12:05:30;99347.53;;;23.21;57.00
54306;BME280;66145;45.188;5.712;2023-08-12T12:07:56;99364.91;;;23.34;56.96
54306;BME280;66145;45.188;5.712;2023-08-12T12:10:33;99366.75;;;23.30;56.82
54306;BME280;66145;45.188;5.712;2023-08-12T12:13:00;99351.22;;;23.25;56.99
54306;BME280;66145;45.188;5.712;2023-08-12T12:15:26;99371.22;;;23.34;57.10
54306;BME280;66145;45.188;5.712;2023-08-12T12:17:52;99350.84;;;23.27;57.20
54306;BME280;66145;45.188;5.712;2023-08-12T12:20:18;99360.06;;;23.31;57.51
54306;BME280;66145;45.188;5.712;2023-08-12T12:22:44;99364.91;;;23.34;57.04
54306;BME280;66145;45.188;5.712;2023-08-12T12:25:12;99356.53;;;23.30;56.94
54306;BME280;66145;45.188;5.712;2023-08-12T12:27:39;99368.03;;;23.32;56.98
54306;BME280;66145;45.188;5.712;2023-08-12T12:30:08;99358.47;;;23.30;57.06
54306;BME280;66145;45.188;5.712;2023-08-12T12:32:34;99332.31;;;23.15;56.99
54306;BME280;66145;45.188;5.712;2023-08-12T12:35:00;99351.22;;;23.25;56.93
54306;BME280;66145;45.188;5.712;2023-08-12T12:37:25;99354.22;;;23.32;57.00
54306;BME280;66145;45.188;5.712;2023-08-12T12:39:50;99349.28;;;23.26;57.02
54306;BME280;66145;45.188;5.712;2023-08-12T12:42:16;99343.03;;;23.29;57.14
54306;BME280;66145;45.188;5.712;2023-08-12T12:44:41;99361.34;;;23.33;57.03
54306;BME280;66145;45.188;5.712;2023-08-12T12:47:06;99350.66;;;23.32;57.08
54306;BME280;66145;45.188;5.712;2023-08-12T12:49:32;99345.69;;;23.25;57.16
54306;BME280;66145;45.188;5.712;2023-08-12T12:51:57;99354.22;;;23.32;57.22
54306;BME280;66145;45.188;5.712;2023-08-12T12:54:22;99343.41;;;23.27;57.13
54306;BME280;66145;45.188;5.712;2023-08-12T12:56:51;99359.28;;;23.30;57.43
54306;BME280;66145;45.188;5.712;2023-08-12T12:59:16;99345.69;;;23.25;57.16
54306;BME280;66145;45.188;5.712;2023-08-12T13:01:43;99335.81;;;23.24;57.26